UPSVAC Airport Information Service

Seattle Boeing Field

ICAO: KBFI Country: United States
Latitude: 47.5341 Longitude: -122.306
Latest Arrival : UPS988 (A) (KRFD-KBFI) Latest Departure : UPS1714 (KBFI-PANC)


WX CaptureLIVE
Data provided by noaa.gov | Fetched at 14:01:01

METAR : KBFI 251353Z 18006KT 10SM BKN029 OVC034 04/01 A2980 RMK AO2 SLP090 T00440006

TAF : KBFI 251139Z 2512/2612 16008KT P6SM OVC020 FM252100 16008KT P6SM SCT050 FM261100 VRB03KT P6SM SCT100 BKN200


Runway Data for KBFI
Data provided by openaviationdata.com

Runway ID Mag Var Hdg Length Elevation Surface ILS Freq ILS Id ILS Slope
13L 20 130° 3707 ft 18 ft Asphalt -- -- --
13R 20 130° 9993 ft 18 ft Asphalt 110.9 IBFI 3
31L 20 310° 9993 ft 18 ft Asphalt 110.9 ICHJ 3
31R 20 310° 3707 ft 18 ft Asphalt -- -- --

Seattle Boeing Field, United States
Use only for reference purposes



Not for navigational purposes.